Řízení letového provozu České republiky
Letiste: LKKV Aktualizace: 24.07.2016 00:38:09  UTC
 METAR LKKV 24.07. 00:00 ...
METAR LKKV 240000Z 00000KT 3000 BR FEW002 SCT036 16/16 Q1019 RMK REG QNH 1014=
 TAF LKKV 23.07. 23:00 ...
TAF LKKV 232300Z 2400/2506 VRB02KT 9999 SCT040      TEMPO 2400/2421 7000 SHRA SCT030TCU      PROB30 TEMPO 2400/2418 2500 TSRA SCT020CB=